Last 24 Hours

Thomas Mountain

10 Minute Data | America/Los_Angeles
as of 5/7/26 4:09 PM PDT
Date & Time Temp (°F) Dew Pt (°F) RH (%) Wind Spd (mph) Wind Dir (°) Wind Gust (mph) Wind Gst Dir (°) Daily Max Temp (°F) Daily Min Temp (°F)
5/7/26 - 1600 73.5 43.7 34 8.2 NNW | 335 18.3 WNW | 286 75.8 54.8
5/7/26 - 1550 73.6 42.7 33 8.7 NW | 326 17.8 NNW | 343 75.8 54.8
5/7/26 - 1540 72.6 41.7 33 8.1 WNW | 293 17.1 W | 274 75.8 54.8
5/7/26 - 1530 73.7 41.3 31 9.5 WNW | 298 20.6 WNW | 290 75.8 54.8
5/7/26 - 1520 72.8 40.1 31 10.6 WNW | 282 19.5 W | 278 75.8 54.8
5/7/26 - 1510 73.5 39.3 29 9.3 WNW | 296 19.1 W | 281 75.8 54.8
5/7/26 - 1500 72.9 38.7 29 9.6 WNW | 297 20.3 NW | 313 75.8 54.8
5/7/26 - 1450 72.5 38.8 29 12.2 W | 269 23.9 WSW | 237 75.8 54.8
5/7/26 - 1440 72.5 39.0 30 13.6 W | 259 24.3 WSW | 255 75.8 54.8
5/7/26 - 1430 72.5 39.1 30 15.1 WSW | 248 25.6 WSW | 257 75.8 54.8
5/7/26 - 1420 72.1 39.1 30 14.0 WSW | 253 25.1 WSW | 240 75.8 54.8
5/7/26 - 1410 72.5 37.4 28 13.1 WSW | 255 21.0 W | 268 75.8 54.8
5/7/26 - 1400 73.0 37.4 27 12.4 W | 270 23.2 WSW | 243 75.8 54.8
5/7/26 - 1350 73.2 34.6 24 14.9 WSW | 238 23.4 SW | 230 75.8 54.8
5/7/26 - 1340 73.9 34.1 23 7.0 WSW | 246 21.1 SW | 227 75.8 54.8
5/7/26 - 1330 73.4 28.8 19 4.7 ENE | 75 10.7 W | 276 75.8 54.8
5/7/26 - 1320 72.8 24.2 16 4.0 ENE | 65 14.0 ESE | 113 75.8 54.8
5/7/26 - 1310 73.6 24.4 16 10.6 ENE | 71 20.3 E | 88 75.8 54.8
5/7/26 - 1300 74.5 24.8 16 10.8 ENE | 68 18.7 ENE | 70 75.8 54.8
5/7/26 - 1250 73.8 24.9 16 7.8 E | 84 15.9 ENE | 72 74.5 54.8
5/7/26 - 1240 73.4 25.2 16 7.9 E | 96 15.8 E | 89 74.3 54.8
5/7/26 - 1230 73.0 25.4 17 9.3 ENE | 77 19.1 E | 86 74.3 54.8
5/7/26 - 1220 72.9 25.5 17 12.4 E | 86 19.6 ENE | 66 74.0 54.8
5/7/26 - 1210 72.6 25.9 17 12.2 E | 97 20.2 ESE | 114 74.0 54.8
5/7/26 - 1200 72.8 25.8 17 9.0 E | 86 18.0 E | 100 74.0 54.8
5/7/26 - 1150 72.2 26.0 18 8.9 ENE | 59 18.3 E | 83 73.7 54.8
5/7/26 - 1140 72.0 24.9 17 9.9 ENE | 59 18.4 NE | 54 73.1 54.8
5/7/26 - 1130 71.9 24.9 17 10.8 ENE | 74 20.5 ENE | 76 72.5 54.8
5/7/26 - 1120 71.5 25.2 18 11.2 ENE | 68 19.5 ENE | 68 72.4 54.8
5/7/26 - 1110 71.4 26.3 18 9.4 ENE | 65 19.8 ENE | 61 72.2 54.8
5/7/26 - 1100 70.9 26.2 19 10.4 ENE | 73 19.9 ENE | 75 72.2 54.8
5/7/26 - 1050 71.3 26.1 18 10.5 ENE | 71 20.8 ENE | 76 72.2 54.8
5/7/26 - 1040 70.6 26.0 19 11.3 ENE | 70 20.0 E | 79 71.9 54.8
5/7/26 - 1030 70.9 26.5 19 8.3 ENE | 75 17.5 ENE | 62 71.9 54.8
5/7/26 - 1020 70.4 27.7 20 11.1 E | 85 18.9 ENE | 57 71.2 54.8
5/7/26 - 1010 70.5 26.6 19 10.4 ENE | 76 19.5 ENE | 74 71.2 54.8
5/7/26 - 1000 70.2 26.6 19 10.7 ENE | 78 20.8 ESE | 102 71.0 54.8
5/7/26 - 0950 70.0 28.7 21 9.8 ENE | 78 17.5 ENE | 64 71.0 54.8
5/7/26 - 0940 69.8 29.6 22 11.7 E | 94 19.4 ENE | 74 71.0 54.8
5/7/26 - 0930 69.9 30.8 23 8.9 ENE | 78 15.6 ESE | 102 70.6 54.8
5/7/26 - 0920 69.0 30.8 24 6.8 ENE | 61 11.2 ENE | 69 70.0 54.8
5/7/26 - 0910 68.9 31.6 25 7.3 NE | 53 12.0 NE | 40 69.3 54.8
5/7/26 - 0900 68.9 31.4 25 6.2 ENE | 69 9.8 ENE | 78 69.3 54.8
5/7/26 - 0850 68.6 32.2 26 6.1 ENE | 66 9.7 ENE | 72 69.1 54.8
5/7/26 - 0840 68.3 32.2 26 5.7 ENE | 64 9.5 ENE | 77 68.8 54.8
5/7/26 - 0830 67.8 33.5 28 6.1 ENE | 67 9.3 ENE | 74 68.0 54.8
5/7/26 - 0820 67.0 34.6 30 6.5 ENE | 73 9.1 NE | 55 67.2 54.8
5/7/26 - 0810 66.4 34.5 30 6.7 ENE | 60 10.0 ENE | 62 66.8 54.8
5/7/26 - 0800 65.8 34.4 31 7.6 NE | 56 11.1 NE | 53 66.2 54.8
5/7/26 - 0750 65.2 34.1 31 7.9 NE | 56 11.0 NE | 56 65.6 54.8
5/7/26 - 0740 64.2 33.3 31 9.0 NE | 46 12.1 NE | 44 64.5 54.8
5/7/26 - 0730 63.5 32.1 31 9.9 NE | 41 12.1 NE | 38 63.9 54.8
5/7/26 - 0720 62.8 32.2 32 10.2 NE | 39 12.1 NE | 40 63.2 54.8
5/7/26 - 0710 62.4 32.0 32 10.1 NE | 40 12.4 NE | 37 62.8 54.8
5/7/26 - 0700 62.0 31.8 32 9.8 NE | 41 12.5 NE | 44 62.2 54.8
5/7/26 - 0650 61.9 31.6 32 9.3 NE | 37 11.5 NE | 43 62.2 54.8
5/7/26 - 0640 61.7 31.1 31 9.5 NE | 34 12.1 NE | 36 61.9 54.8
5/7/26 - 0630 61.3 30.9 32 9.2 NE | 34 12.0 NE | 42 61.5 54.8
5/7/26 - 0620 61.1 30.7 32 9.3 NE | 38 11.8 NE | 37 61.4 54.8
5/7/26 - 0610 61.2 30.5 31 9.8 NNE | 33 12.4 NNE | 30 61.4 54.8
5/7/26 - 0600 61.0 30.3 31 9.8 NNE | 27 12.9 NNE | 29 61.3 54.8
5/7/26 - 0550 60.6 30.2 31 10.0 NNE | 31 12.9 NNE | 22 60.9 54.8
5/7/26 - 0540 60.6 30.4 32 10.5 NNE | 32 12.9 NE | 39 60.9 54.8
5/7/26 - 0530 60.3 30.6 32 9.6 NNE | 32 12.4 NNE | 33 60.8 54.8
5/7/26 - 0520 59.5 31.5 35 8.8 NNE | 20 10.7 NNE | 18 60.3 54.8
5/7/26 - 0510 59.6 31.0 34 9.4 NNE | 26 11.6 NNE | 21 60.3 54.8
5/7/26 - 0500 58.6 31.2 35 8.2 NNE | 31 10.4 NE | 39 60.3 54.8
5/7/26 - 0450 59.1 31.2 35 8.3 NNE | 31 9.7 NNE | 33 60.3 54.8
5/7/26 - 0440 59.0 31.4 35 7.7 NE | 35 10.2 NNE | 33 60.3 54.8
5/7/26 - 0430 59.3 31.6 35 7.6 NNE | 33 10.7 NNE | 26 60.3 54.8
5/7/26 - 0420 60.1 31.4 34 8.0 NNE | 30 9.8 N | 10 60.3 54.8
5/7/26 - 0410 60.0 31.8 34 8.6 NNE | 29 11.0 NNE | 33 60.3 54.8
5/7/26 - 0400 59.4 31.8 35 8.5 NNE | 33 10.4 NNE | 31 60.2 54.8
5/7/26 - 0350 59.3 31.8 35 8.7 NE | 38 10.4 NE | 36 60.2 54.8
5/7/26 - 0340 59.8 31.9 35 8.4 NE | 34 10.2 NE | 41 60.2 54.8
5/7/26 - 0330 59.5 32.2 35 8.5 NNE | 27 11.1 NNE | 20 59.8 54.8
5/7/26 - 0320 59.1 32.4 36 9.0 NNE | 26 11.2 NNE | 13 59.3 54.8
5/7/26 - 0310 57.6 33.2 40 8.5 NNE | 29 10.9 NNE | 26 59.0 54.8
5/7/26 - 0300 57.9 33.5 40 8.8 NNE | 23 11.0 NNE | 17 59.0 54.8
5/7/26 - 0250 57.1 34.5 42 8.3 NNE | 21 11.7 NNE | 17 58.8 54.8
5/7/26 - 0240 58.4 33.8 39 8.0 NNE | 24 10.3 NNE | 21 58.8 54.8
5/7/26 - 0230 57.5 34.5 42 7.6 NNE | 29 10.1 NNE | 21 58.7 54.8
5/7/26 - 0220 55.8 35.9 47 7.4 NNE | 23 9.6 NNE | 27 58.7 54.8
5/7/26 - 0210 55.8 35.6 47 7.6 NNE | 29 10.1 NNE | 14 58.7 54.8
5/7/26 - 0200 56.2 35.4 45 6.7 NE | 41 8.8 NE | 36 58.7 54.8
5/7/26 - 0150 55.5 35.7 47 6.9 NNE | 19 9.0 N | 8 58.7 54.8
5/7/26 - 0140 56.8 34.6 43 5.4 NNE | 12 8.8 NNE | 33 58.7 54.8
5/7/26 - 0130 55.2 37.8 52 3.1 NE | 37 5.3 NE | 46 56.2 54.8
5/7/26 - 0120 55.0 39.0 55 3.8 NNE | 26 7.0 NNE | 32 56.2 54.9
5/7/26 - 0110 55.7 38.7 53 3.2 NNE | 23 7.2 NNE | 32 56.2 55.3
5/7/26 - 0100 56.6 38.2 50 1.7 N | 3 4.0 N | 350 66.1 37.6
5/7/26 - 0050 56.6 37.8 49 0.8 N | 7 4.2 N | 352 66.1 37.6
5/7/26 - 0040 56.0 38.8 52 2.3 S | 177 4.4 S | 170 66.1 37.6
5/7/26 - 0030 56.1 38.0 50 1.5 S | 189 3.4 S | 188 66.1 37.6
5/7/26 - 0020 55.7 38.4 52 3.8 NW | 318 8.6 N | 353 66.1 37.6
5/7/26 - 0010 55.5 39.6 55 6.8 N | 360 9.1 N | 4 66.1 37.6
5/7/26 - 0000 55.2 40.9 58 7.3 N | 11 10.4 N | 9 66.1 37.6
5/6/26 - 2350 54.9 41.9 61 8.4 N | 11 10.7 N | 2 66.1 37.6
5/6/26 - 2340 54.6 42.7 64 7.5 NNE | 17 10.7 NNE | 23 66.1 37.6
5/6/26 - 2330 54.2 43.7 67 8.0 NNE | 16 10.4 NNE | 23 66.1 37.6
5/6/26 - 2320 53.8 44.5 70 8.5 NNE | 13 10.7 NNE | 18 66.1 37.6
5/6/26 - 2310 53.9 44.5 70 8.2 NNE | 17 10.8 N | 11 66.1 37.6
5/6/26 - 2300 54.2 44.0 68 7.8 NNE | 16 11.2 N | 6 66.1 37.6
5/6/26 - 2250 54.0 44.4 70 7.6 NNE | 18 9.6 NNE | 20 66.1 37.6
5/6/26 - 2240 53.8 44.8 71 7.3 NNE | 17 9.6 NNE | 13 66.1 37.6
5/6/26 - 2230 53.7 45.2 73 7.3 NNE | 12 9.7 NNE | 16 66.1 37.6
5/6/26 - 2220 53.7 44.6 71 6.2 NNE | 26 9.5 N | 7 66.1 37.6
5/6/26 - 2210 53.5 44.0 70 5.2 NNE | 24 7.0 NNE | 29 66.1 37.6
5/6/26 - 2200 53.3 45.1 74 3.1 NE | 34 5.6 NNE | 25 66.1 37.6
5/6/26 - 2150 53.1 44.8 73 2.6 N | 6 6.1 NE | 49 66.1 37.6
5/6/26 - 2140 53.4 45.2 74 6.2 NNE | 16 9.6 N | 350 66.1 37.6
5/6/26 - 2130 53.4 45.1 73 7.4 NNE | 22 9.6 NNE | 17 66.1 37.6
5/6/26 - 2120 53.5 44.7 72 7.2 NNE | 16 10.3 NNE | 16 66.1 37.6
5/6/26 - 2110 53.8 44.5 71 7.6 NNE | 18 10.7 N | 3 66.1 37.6
5/6/26 - 2100 54.2 44.4 69 8.1 N | 10 11.0 N | 0 66.1 37.6
5/6/26 - 2050 54.8 44.0 67 7.6 NNE | 15 10.1 N | 6 66.1 37.6
5/6/26 - 2040 55.3 43.9 65 8.0 NNE | 18 11.6 NNE | 14 66.1 37.6
5/6/26 - 2030 55.3 43.2 64 6.6 NNE | 15 9.6 N | 8 66.1 37.6
5/6/26 - 2020 55.8 42.8 61 6.3 NNE | 16 8.9 NNE | 30 66.1 37.6
5/6/26 - 2010 56.4 42.6 60 7.7 NNE | 25 11.2 NNE | 22 66.1 37.6
5/6/26 - 2000 56.7 42.6 59 8.4 NNE | 23 12.6 NNE | 22 66.1 37.6
5/6/26 - 1950 57.2 42.3 57 9.7 NNE | 17 13.3 N | 11 66.1 37.6
5/6/26 - 1940 57.4 42.3 57 10.2 NNE | 14 14.3 N | 4 66.1 37.6
5/6/26 - 1930 57.4 42.8 58 10.8 NNE | 15 17.3 NNE | 15 66.1 37.6
5/6/26 - 1920 57.3 43.2 59 9.7 NNE | 15 13.3 NNE | 18 66.1 37.6
5/6/26 - 1910 57.8 43.2 58 10.7 NNE | 17 15.6 NNE | 22 66.1 37.6
5/6/26 - 1900 58.4 43.0 56 9.5 NNE | 22 13.2 NNE | 25 66.1 37.6
5/6/26 - 1850 59.1 42.8 55 8.7 NNE | 19 12.9 N | 5 66.1 37.6
5/6/26 - 1840 60.0 42.4 52 8.4 NNE | 21 12.6 N | 6 66.1 37.6
5/6/26 - 1830 60.7 42.1 50 8.5 NNE | 22 12.1 NNE | 26 66.1 37.6
5/6/26 - 1820 61.3 41.8 49 9.6 NNE | 22 13.7 NNE | 13 66.1 37.6
5/6/26 - 1810 61.8 41.3 47 8.1 NNE | 17 11.9 NNE | 20 66.1 37.6
5/6/26 - 1800 62.6 40.5 44 8.9 NNE | 28 14.0 NNE | 23 66.1 37.6
5/6/26 - 1750 63.2 40.2 43 7.4 NNE | 22 12.4 NNE | 21 66.1 37.6
5/6/26 - 1740 63.7 39.8 41 8.1 NNE | 31 11.6 NNE | 30 66.1 37.6
5/6/26 - 1730 63.7 39.7 41 10.5 NE | 36 15.9 NE | 48 66.1 37.6
5/6/26 - 1720 64.3 39.5 40 9.2 NNE | 33 15.4 NE | 49 66.1 37.6
5/6/26 - 1710 65.2 39.8 39 7.6 ENE | 57 16.1 ENE | 57 66.1 37.6
5/6/26 - 1700 64.3 39.8 40 9.0 SSE | 152 17.8 ENE | 74 66.1 37.6
5/6/26 - 1650 65.0 39.9 40 9.5 SSW | 207 17.1 SSW | 206 66.1 37.6
5/6/26 - 1640 64.5 40.2 41 4.9 SSW | 192 14.0 S | 191 66.1 37.6
5/6/26 - 1630 64.4 39.0 39 7.9 ESE | 117 15.8 SE | 127 66.0 37.6
5/6/26 - 1620 65.0 35.2 33 5.0 E | 90 11.9 ENE | 78 66.0 37.6
5/6/26 - 1610 65.3 35.6 33 5.5 ESE | 115 12.4 ESE | 108 66.0 37.6
5/6/26 - 1600 64.8 35.2 33 9.9 E | 95 16.9 E | 84 66.0 37.6
Max 74.5 45.2 74 15.1 - 25.6 - 75.8 55.3
Avg 62.9 35.8 40 8.3 - 13.3 - - -
Min 53.1 24.2 16 0.8 - 3.4 - 56.2 37.6